Terminal Aerodrome Forecast
Issued by NWS

Home | Current Version | Previous Version | Graphics & Text | Print | Product List | Glossary On
Versions: 1 2 3 4 5 6 7 8 9 10 11 12 13 14 15 16
561
FTUS42 KMHX 151602 AAA
TAFPGV
TAF AMD
KPGV 151602Z 1516/1612 04010KT P6SM SCT020 OVC100
      TEMPO 1516/1519 BKN020
     FM151900 04007KT P6SM SCT020 BKN040
     FM152300 05005KT P6SM SCT020 BKN040
      AMD LTD TO CLD VIS AND WIND=

USA.gov is the U.S. government's official web portal to all federal, state and local government web resources and services.